sensor_id;sensor_type;location;lat;lon;timestamp;temperature;humidity
13928;DHT22;7036;50.834;4.718;2024-01-15T00:00:10;16.70;43.10
13928;DHT22;7036;50.834;4.718;2024-01-15T00:02:38;16.60;43.00
13928;DHT22;7036;50.834;4.718;2024-01-15T00:05:06;16.60;42.40
13928;DHT22;7036;50.834;4.718;2024-01-15T00:07:33;16.70;43.10
13928;DHT22;7036;50.834;4.718;2024-01-15T00:10:00;16.60;43.00
13928;DHT22;7036;50.834;4.718;2024-01-15T00:12:28;16.60;43.10
13928;DHT22;7036;50.834;4.718;2024-01-15T00:14:55;16.60;43.10
13928;DHT22;7036;50.834;4.718;2024-01-15T00:17:23;16.60;43.10
13928;DHT22;7036;50.834;4.718;2024-01-15T00:19:53;16.60;43.10
13928;DHT22;7036;50.834;4.718;2024-01-15T00:22:20;16.60;43.00
13928;DHT22;7036;50.834;4.718;2024-01-15T00:24:47;16.60;43.00
13928;DHT22;7036;50.834;4.718;2024-01-15T00:27:15;16.60;43.10
13928;DHT22;7036;50.834;4.718;2024-01-15T00:29:42;16.60;43.10
13928;DHT22;7036;50.834;4.718;2024-01-15T00:32:09;16.60;43.10
13928;DHT22;7036;50.834;4.718;2024-01-15T00:34:40;16.60;43.20
13928;DHT22;7036;50.834;4.718;2024-01-15T00:37:08;16.60;43.30
13928;DHT22;7036;50.834;4.718;2024-01-15T00:39:35;16.60;43.20
13928;DHT22;7036;50.834;4.718;2024-01-15T00:42:03;16.60;43.20
13928;DHT22;7036;50.834;4.718;2024-01-15T00:44:30;16.60;43.10
13928;DHT22;7036;50.834;4.718;2024-01-15T00:46:58;16.60;43.20
13928;DHT22;7036;50.834;4.718;2024-01-15T00:49:26;16.60;43.20
13928;DHT22;7036;50.834;4.718;2024-01-15T00:51:53;16.60;43.20
13928;DHT22;7036;50.834;4.718;2024-01-15T00:54:20;16.60;43.20
13928;DHT22;7036;50.834;4.718;2024-01-15T00:56:48;16.60;43.20
13928;DHT22;7036;50.834;4.718;2024-01-15T00:59:25;16.60;43.20
13928;DHT22;7036;50.834;4.718;2024-01-15T01:01:43;16.60;43.20
13928;DHT22;7036;50.834;4.718;2024-01-15T01:04:13;16.60;43.30
13928;DHT22;7036;50.834;4.718;2024-01-15T01:06:41;16.60;43.30
13928;DHT22;7036;50.834;4.718;2024-01-15T01:09:08;16.60;43.30
13928;DHT22;7036;50.834;4.718;2024-01-15T01:11:35;16.60;43.30
13928;DHT22;7036;50.834;4.718;2024-01-15T01:14:02;16.60;43.30
13928;DHT22;7036;50.834;4.718;2024-01-15T01:16:30;16.60;43.30
13928;DHT22;7036;50.834;4.718;2024-01-15T01:18:57;16.60;43.30
13928;DHT22;7036;50.834;4.718;2024-01-15T01:21:25;16.50;43.30
13928;DHT22;7036;50.834;4.718;2024-01-15T01:23:52;16.50;43.30
13928;DHT22;7036;50.834;4.718;2024-01-15T01:26:20;16.50;43.30
13928;DHT22;7036;50.834;4.718;2024-01-15T01:28:47;16.50;43.40
13928;DHT22;7036;50.834;4.718;2024-01-15T01:31:14;16.50;43.40
13928;DHT22;7036;50.834;4.718;2024-01-15T01:33:41;16.50;43.30
13928;DHT22;7036;50.834;4.718;2024-01-15T01:36:09;16.50;43.30
13928;DHT22;7036;50.834;4.718;2024-01-15T01:38:39;16.50;43.30
13928;DHT22;7036;50.834;4.718;2024-01-15T01:41:06;16.50;43.30
13928;DHT22;7036;50.834;4.718;2024-01-15T01:43:33;16.50;43.40
13928;DHT22;7036;50.834;4.718;2024-01-15T01:46:00;16.50;43.40
13928;DHT22;7036;50.834;4.718;2024-01-15T01:48:28;16.50;43.40
13928;DHT22;7036;50.834;4.718;2024-01-15T01:50:56;16.50;43.40
13928;DHT22;7036;50.834;4.718;2024-01-15T01:53:22;16.50;43.50
13928;DHT22;7036;50.834;4.718;2024-01-15T01:55:49;16.50;43.40
13928;DHT22;7036;50.834;4.718;2024-01-15T01:58:16;16.50;43.40
13928;DHT22;7036;50.834;4.718;2024-01-15T02:00:44;16.50;43.40
13928;DHT22;7036;50.834;4.718;2024-01-15T02:03:12;16.50;43.60
13928;DHT22;7036;50.834;4.718;2024-01-15T02:05:39;16.50;43.50
13928;DHT22;7036;50.834;4.718;2024-01-15T02:08:06;16.50;43.50
13928;DHT22;7036;50.834;4.718;2024-01-15T02:10:34;16.50;43.60
13928;DHT22;7036;50.834;4.718;2024-01-15T02:13:01;16.50;43.60
13928;DHT22;7036;50.834;4.718;2024-01-15T02:15:28;16.50;43.60
13928;DHT22;7036;50.834;4.718;2024-01-15T02:20:26;16.50;43.70
13928;DHT22;7036;50.834;4.718;2024-01-15T02:22:54;16.50;43.60
13928;DHT22;7036;50.834;4.718;2024-01-15T02:25:21;16.50;43.60
13928;DHT22;7036;50.834;4.718;2024-01-15T02:27:49;16.50;43.80
13928;DHT22;7036;50.834;4.718;2024-01-15T02:30:17;16.50;43.80
13928;DHT22;7036;50.834;4.718;2024-01-15T02:32:45;16.40;43.80
13928;DHT22;7036;50.834;4.718;2024-01-15T02:35:12;16.50;43.70
13928;DHT22;7036;50.834;4.718;2024-01-15T02:37:40;16.40;43.80
13928;DHT22;7036;50.834;4.718;2024-01-15T02:40:07;16.40;43.70
13928;DHT22;7036;50.834;4.718;2024-01-15T02:42:34;16.40;43.60
13928;DHT22;7036;50.834;4.718;2024-01-15T02:45:03;16.40;43.80
13928;DHT22;7036;50.834;4.718;2024-01-15T02:47:31;16.40;43.80
13928;DHT22;7036;50.834;4.718;2024-01-15T02:49:58;16.40;43.70
13928;DHT22;7036;50.834;4.718;2024-01-15T02:52:26;16.50;43.80
13928;DHT22;7036;50.834;4.718;2024-01-15T02:54:54;16.50;43.80
13928;DHT22;7036;50.834;4.718;2024-01-15T02:57:21;16.40;43.70
13928;DHT22;7036;50.834;4.718;2024-01-15T02:59:49;16.40;43.80
13928;DHT22;7036;50.834;4.718;2024-01-15T03:02:17;16.40;43.80
13928;DHT22;7036;50.834;4.718;2024-01-15T03:04:45;16.40;43.80
13928;DHT22;7036;50.834;4.718;2024-01-15T03:07:12;16.40;43.80
13928;DHT22;7036;50.834;4.718;2024-01-15T03:09:40;16.40;43.20
13928;DHT22;7036;50.834;4.718;2024-01-15T03:12:08;16.40;43.90
13928;DHT22;7036;50.834;4.718;2024-01-15T03:14:36;16.40;44.00
13928;DHT22;7036;50.834;4.718;2024-01-15T03:17:04;16.40;43.90
13928;DHT22;7036;50.834;4.718;2024-01-15T03:19:34;16.40;43.80
13928;DHT22;7036;50.834;4.718;2024-01-15T03:21:59;16.40;44.70
13928;DHT22;7036;50.834;4.718;2024-01-15T03:24:27;16.40;44.00
13928;DHT22;7036;50.834;4.718;2024-01-15T03:26:55;16.40;43.80
13928;DHT22;7036;50.834;4.718;2024-01-15T03:29:23;16.40;43.90
13928;DHT22;7036;50.834;4.718;2024-01-15T03:31:50;16.40;43.90
13928;DHT22;7036;50.834;4.718;2024-01-15T03:34:18;16.40;44.00
13928;DHT22;7036;50.834;4.718;2024-01-15T03:36:46;16.40;44.00
13928;DHT22;7036;50.834;4.718;2024-01-15T03:39:14;16.40;44.00
13928;DHT22;7036;50.834;4.718;2024-01-15T03:41:44;16.40;43.90
13928;DHT22;7036;50.834;4.718;2024-01-15T03:44:12;16.40;44.10
13928;DHT22;7036;50.834;4.718;2024-01-15T03:46:40;16.40;44.10
13928;DHT22;7036;50.834;4.718;2024-01-15T03:49:08;16.40;44.00
13928;DHT22;7036;50.834;4.718;2024-01-15T03:51:36;16.40;44.10
13928;DHT22;7036;50.834;4.718;2024-01-15T03:54:03;16.40;44.10
13928;DHT22;7036;50.834;4.718;2024-01-15T03:56:31;16.40;44.10
13928;DHT22;7036;50.834;4.718;2024-01-15T03:58:59;16.40;44.10
13928;DHT22;7036;50.834;4.718;2024-01-15T04:01:27;16.40;44.10
13928;DHT22;7036;50.834;4.718;2024-01-15T04:03:55;16.40;44.10
13928;DHT22;7036;50.834;4.718;2024-01-15T04:06:23;16.40;44.10
13928;DHT22;7036;50.834;4.718;2024-01-15T04:08:50;16.40;44.00
13928;DHT22;7036;50.834;4.718;2024-01-15T04:11:18;16.40;44.10
13928;DHT22;7036;50.834;4.718;2024-01-15T04:13:46;16.40;44.10
13928;DHT22;7036;50.834;4.718;2024-01-15T04:16:14;16.40;44.10
13928;DHT22;7036;50.834;4.718;2024-01-15T04:18:42;16.30;43.40
13928;DHT22;7036;50.834;4.718;2024-01-15T04:21:10;16.40;44.20
13928;DHT22;7036;50.834;4.718;2024-01-15T04:23:39;16.30;44.10
13928;DHT22;7036;50.834;4.718;2024-01-15T04:26:07;16.30;44.10
13928;DHT22;7036;50.834;4.718;2024-01-15T04:28:36;16.30;44.00
13928;DHT22;7036;50.834;4.718;2024-01-15T04:31:03;16.30;44.10
13928;DHT22;7036;50.834;4.718;2024-01-15T04:33:31;16.30;44.10
13928;DHT22;7036;50.834;4.718;2024-01-15T04:36:03;16.30;44.10
13928;DHT22;7036;50.834;4.718;2024-01-15T04:38:30;16.30;44.00
13928;DHT22;7036;50.834;4.718;2024-01-15T04:40:58;16.30;43.60
13928;DHT22;7036;50.834;4.718;2024-01-15T04:43:26;16.30;44.10
13928;DHT22;7036;50.834;4.718;2024-01-15T04:45:54;16.30;44.10
13928;DHT22;7036;50.834;4.718;2024-01-15T04:48:22;16.30;44.20
13928;DHT22;7036;50.834;4.718;2024-01-15T04:50:49;16.30;44.20
13928;DHT22;7036;50.834;4.718;2024-01-15T04:53:17;16.30;44.20
13928;DHT22;7036;50.834;4.718;2024-01-15T04:55:45;16.30;45.00
13928;DHT22;7036;50.834;4.718;2024-01-15T04:58:13;16.30;44.20
13928;DHT22;7036;50.834;4.718;2024-01-15T05:00:41;16.30;44.10
13928;DHT22;7036;50.834;4.718;2024-01-15T05:03:09;16.30;44.20
13928;DHT22;7036;50.834;4.718;2024-01-15T05:05:37;16.30;44.20
13928;DHT22;7036;50.834;4.718;2024-01-15T05:08:04;16.30;44.00
13928;DHT22;7036;50.834;4.718;2024-01-15T05:10:31;16.30;44.10
13928;DHT22;7036;50.834;4.718;2024-01-15T05:12:59;16.30;44.90
13928;DHT22;7036;50.834;4.718;2024-01-15T05:15:27;16.30;44.20
13928;DHT22;7036;50.834;4.718;2024-01-15T05:17:55;16.30;44.20
13928;DHT22;7036;50.834;4.718;2024-01-15T05:20:23;16.30;44.20
13928;DHT22;7036;50.834;4.718;2024-01-15T05:22:51;16.30;44.20
13928;DHT22;7036;50.834;4.718;2024-01-15T05:25:19;16.30;44.20
13928;DHT22;7036;50.834;4.718;2024-01-15T05:27:47;16.30;44.20
13928;DHT22;7036;50.834;4.718;2024-01-15T05:30:14;16.30;44.10
13928;DHT22;7036;50.834;4.718;2024-01-15T05:32:41;16.30;44.20
13928;DHT22;7036;50.834;4.718;2024-01-15T05:35:09;16.30;44.20
13928;DHT22;7036;50.834;4.718;2024-01-15T05:37:39;16.30;44.20
13928;DHT22;7036;50.834;4.718;2024-01-15T05:40:05;16.30;44.20
13928;DHT22;7036;50.834;4.718;2024-01-15T05:42:33;16.20;44.10
13928;DHT22;7036;50.834;4.718;2024-01-15T05:45:01;16.30;44.20
13928;DHT22;7036;50.834;4.718;2024-01-15T05:47:29;16.30;44.20
13928;DHT22;7036;50.834;4.718;2024-01-15T05:49:57;16.30;44.30
13928;DHT22;7036;50.834;4.718;2024-01-15T05:52:24;16.30;44.20
13928;DHT22;7036;50.834;4.718;2024-01-15T05:54:52;16.20;44.10
13928;DHT22;7036;50.834;4.718;2024-01-15T05:57:19;16.30;44.10
13928;DHT22;7036;50.834;4.718;2024-01-15T05:59:47;16.30;44.20
13928;DHT22;7036;50.834;4.718;2024-01-15T06:02:15;16.30;44.20
13928;DHT22;7036;50.834;4.718;2024-01-15T06:04:43;16.30;44.20
13928;DHT22;7036;50.834;4.718;2024-01-15T06:07:11;16.30;44.20
13928;DHT22;7036;50.834;4.718;2024-01-15T06:09:39;16.20;44.20
13928;DHT22;7036;50.834;4.718;2024-01-15T06:12:07;16.20;44.20
13928;DHT22;7036;50.834;4.718;2024-01-15T06:14:35;16.20;44.20
13928;DHT22;7036;50.834;4.718;2024-01-15T06:17:02;16.20;44.20
13928;DHT22;7036;50.834;4.718;2024-01-15T06:19:30;16.20;44.20
13928;DHT22;7036;50.834;4.718;2024-01-15T06:21:58;16.20;44.20
13928;DHT22;7036;50.834;4.718;2024-01-15T06:24:26;16.20;44.20
13928;DHT22;7036;50.834;4.718;2024-01-15T06:26:53;16.20;44.20
13928;DHT22;7036;50.834;4.718;2024-01-15T06:29:21;16.20;44.30
13928;DHT22;7036;50.834;4.718;2024-01-15T06:31:48;16.20;44.20
13928;DHT22;7036;50.834;4.718;2024-01-15T06:34:16;16.20;44.20
13928;DHT22;7036;50.834;4.718;2024-01-15T06:36:44;16.20;44.20
13928;DHT22;7036;50.834;4.718;2024-01-15T06:39:12;16.30;44.20
13928;DHT22;7036;50.834;4.718;2024-01-15T06:41:40;16.20;44.20
13928;DHT22;7036;50.834;4.718;2024-01-15T06:44:10;16.20;44.10
13928;DHT22;7036;50.834;4.718;2024-01-15T06:46:44;16.20;44.20
13928;DHT22;7036;50.834;4.718;2024-01-15T06:49:12;16.20;45.00
13928;DHT22;7036;50.834;4.718;2024-01-15T06:51:40;16.20;44.20
13928;DHT22;7036;50.834;4.718;2024-01-15T06:54:08;16.20;44.20
13928;DHT22;7036;50.834;4.718;2024-01-15T06:56:36;16.20;44.20
13928;DHT22;7036;50.834;4.718;2024-01-15T06:59:03;16.20;44.10
13928;DHT22;7036;50.834;4.718;2024-01-15T07:01:31;16.20;44.20
13928;DHT22;7036;50.834;4.718;2024-01-15T07:04:00;16.20;44.20
13928;DHT22;7036;50.834;4.718;2024-01-15T07:06:27;16.20;44.00
13928;DHT22;7036;50.834;4.718;2024-01-15T07:08:54;16.20;44.00
13928;DHT22;7036;50.834;4.718;2024-01-15T07:11:22;16.20;44.20
13928;DHT22;7036;50.834;4.718;2024-01-15T07:13:50;16.20;44.20
13928;DHT22;7036;50.834;4.718;2024-01-15T07:16:19;16.20;44.90
13928;DHT22;7036;50.834;4.718;2024-01-15T07:18:47;16.30;44.20
13928;DHT22;7036;50.834;4.718;2024-01-15T07:21:15;16.40;44.90
13928;DHT22;7036;50.834;4.718;2024-01-15T07:23:42;16.30;44.00
13928;DHT22;7036;50.834;4.718;2024-01-15T07:26:09;16.50;44.20
13928;DHT22;7036;50.834;4.718;2024-01-15T07:28:37;16.70;44.40
13928;DHT22;7036;50.834;4.718;2024-01-15T07:31:05;16.80;44.30
13928;DHT22;7036;50.834;4.718;2024-01-15T07:33:33;16.90;44.30
13928;DHT22;7036;50.834;4.718;2024-01-15T07:36:01;17.00;44.20
13928;DHT22;7036;50.834;4.718;2024-01-15T07:38:28;17.00;44.10
13928;DHT22;7036;50.834;4.718;2024-01-15T07:40:56;17.10;44.20
13928;DHT22;7036;50.834;4.718;2024-01-15T07:43:24;17.10;44.80
13928;DHT22;7036;50.834;4.718;2024-01-15T07:45:52;17.10;44.10
13928;DHT22;7036;50.834;4.718;2024-01-15T07:48:21;17.10;44.00
13928;DHT22;7036;50.834;4.718;2024-01-15T07:50:49;17.20;44.00
13928;DHT22;7036;50.834;4.718;2024-01-15T07:53:18;17.20;44.00
13928;DHT22;7036;50.834;4.718;2024-01-15T07:55:46;17.30;44.00
13928;DHT22;7036;50.834;4.718;2024-01-15T07:58:13;17.30;43.90
13928;DHT22;7036;50.834;4.718;2024-01-15T08:00:42;17.40;44.70
13928;DHT22;7036;50.834;4.718;2024-01-15T08:03:11;17.40;43.90
13928;DHT22;7036;50.834;4.718;2024-01-15T08:05:38;17.50;43.90
13928;DHT22;7036;50.834;4.718;2024-01-15T08:08:05;17.50;44.40
13928;DHT22;7036;50.834;4.718;2024-01-15T08:10:32;17.60;43.70
13928;DHT22;7036;50.834;4.718;2024-01-15T08:13:00;17.60;43.60
13928;DHT22;7036;50.834;4.718;2024-01-15T08:15:28;17.70;43.50
13928;DHT22;7036;50.834;4.718;2024-01-15T08:17:56;17.70;43.50
13928;DHT22;7036;50.834;4.718;2024-01-15T08:20:24;17.80;43.50
13928;DHT22;7036;50.834;4.718;2024-01-15T08:22:52;17.80;43.50
13928;DHT22;7036;50.834;4.718;2024-01-15T08:25:20;17.90;43.60
13928;DHT22;7036;50.834;4.718;2024-01-15T08:27:47;17.90;43.40
13928;DHT22;7036;50.834;4.718;2024-01-15T08:30:16;17.90;44.40
13928;DHT22;7036;50.834;4.718;2024-01-15T08:32:44;18.00;43.60
13928;DHT22;7036;50.834;4.718;2024-01-15T08:35:12;18.00;43.70
13928;DHT22;7036;50.834;4.718;2024-01-15T08:37:40;18.00;43.70
13928;DHT22;7036;50.834;4.718;2024-01-15T08:40:08;18.00;43.60
13928;DHT22;7036;50.834;4.718;2024-01-15T08:42:35;18.00;43.50
13928;DHT22;7036;50.834;4.718;2024-01-15T08:45:04;18.10;43.50
13928;DHT22;7036;50.834;4.718;2024-01-15T08:47:31;18.00;43.30
13928;DHT22;7036;50.834;4.718;2024-01-15T08:49:59;18.00;43.40
13928;DHT22;7036;50.834;4.718;2024-01-15T08:52:27;18.10;43.40
13928;DHT22;7036;50.834;4.718;2024-01-15T08:54:58;18.10;43.30
13928;DHT22;7036;50.834;4.718;2024-01-15T08:57:22;18.10;43.20
13928;DHT22;7036;50.834;4.718;2024-01-15T08:59:51;18.10;42.50
13928;DHT22;7036;50.834;4.718;2024-01-15T09:02:19;18.10;43.20
13928;DHT22;7036;50.834;4.718;2024-01-15T09:04:46;18.10;43.10
13928;DHT22;7036;50.834;4.718;2024-01-15T09:07:14;18.10;43.10
13928;DHT22;7036;50.834;4.718;2024-01-15T09:09:42;18.10;43.00
13928;DHT22;7036;50.834;4.718;2024-01-15T09:12:10;18.10;43.00
13928;DHT22;7036;50.834;4.718;2024-01-15T09:14:38;18.20;42.90
13928;DHT22;7036;50.834;4.718;2024-01-15T09:17:06;18.20;42.90
13928;DHT22;7036;50.834;4.718;2024-01-15T09:19:34;18.20;42.80
13928;DHT22;7036;50.834;4.718;2024-01-15T09:22:02;18.20;42.70
13928;DHT22;7036;50.834;4.718;2024-01-15T09:24:29;18.20;42.60
13928;DHT22;7036;50.834;4.718;2024-01-15T09:26:56;18.20;42.60
13928;DHT22;7036;50.834;4.718;2024-01-15T09:29:23;18.20;42.60
13928;DHT22;7036;50.834;4.718;2024-01-15T09:31:51;18.10;43.40
13928;DHT22;7036;50.834;4.718;2024-01-15T09:34:19;18.20;42.70
13928;DHT22;7036;50.834;4.718;2024-01-15T09:36:47;18.20;42.70
13928;DHT22;7036;50.834;4.718;2024-01-15T09:39:15;18.20;42.60
13928;DHT22;7036;50.834;4.718;2024-01-15T09:41:43;18.10;42.40
13928;DHT22;7036;50.834;4.718;2024-01-15T09:44:11;18.10;42.40
13928;DHT22;7036;50.834;4.718;2024-01-15T09:46:39;18.10;42.30
13928;DHT22;7036;50.834;4.718;2024-01-15T09:49:06;18.00;42.10
13928;DHT22;7036;50.834;4.718;2024-01-15T09:51:34;18.00;42.20
13928;DHT22;7036;50.834;4.718;2024-01-15T09:54:02;18.00;42.30
13928;DHT22;7036;50.834;4.718;2024-01-15T09:56:30;17.90;42.30
13928;DHT22;7036;50.834;4.718;2024-01-15T09:58:58;17.90;42.30
13928;DHT22;7036;50.834;4.718;2024-01-15T10:01:26;17.90;42.40
13928;DHT22;7036;50.834;4.718;2024-01-15T10:03:54;17.80;42.40
13928;DHT22;7036;50.834;4.718;2024-01-15T10:06:22;17.80;42.40
13928;DHT22;7036;50.834;4.718;2024-01-15T10:08:50;17.80;42.30
13928;DHT22;7036;50.834;4.718;2024-01-15T10:11:17;17.70;42.40
13928;DHT22;7036;50.834;4.718;2024-01-15T10:13:48;17.70;42.40
13928;DHT22;7036;50.834;4.718;2024-01-15T10:16:13;17.70;42.30
13928;DHT22;7036;50.834;4.718;2024-01-15T10:18:41;17.70;42.50
13928;DHT22;7036;50.834;4.718;2024-01-15T10:21:10;17.70;42.40
13928;DHT22;7036;50.834;4.718;2024-01-15T10:23:38;17.60;43.10
13928;DHT22;7036;50.834;4.718;2024-01-15T10:26:06;17.60;42.40
13928;DHT22;7036;50.834;4.718;2024-01-15T10:28:35;17.60;42.40
13928;DHT22;7036;50.834;4.718;2024-01-15T10:31:02;17.60;42.30
13928;DHT22;7036;50.834;4.718;2024-01-15T10:33:30;17.60;42.50
13928;DHT22;7036;50.834;4.718;2024-01-15T10:35:59;17.50;42.40
13928;DHT22;7036;50.834;4.718;2024-01-15T10:38:25;17.50;42.30
13928;DHT22;7036;50.834;4.718;2024-01-15T10:40:53;17.50;43.20
13928;DHT22;7036;50.834;4.718;2024-01-15T10:43:21;17.40;42.50
13928;DHT22;7036;50.834;4.718;2024-01-15T10:45:50;17.50;42.50
13928;DHT22;7036;50.834;4.718;2024-01-15T10:48:17;17.40;42.30
13928;DHT22;7036;50.834;4.718;2024-01-15T10:50:44;17.40;42.40
13928;DHT22;7036;50.834;4.718;2024-01-15T10:53:13;17.40;42.50
13928;DHT22;7036;50.834;4.718;2024-01-15T10:55:40;17.40;42.50
13928;DHT22;7036;50.834;4.718;2024-01-15T10:58:07;17.40;42.40
13928;DHT22;7036;50.834;4.718;2024-01-15T11:00:35;17.40;42.50
13928;DHT22;7036;50.834;4.718;2024-01-15T11:03:03;17.30;42.50
13928;DHT22;7036;50.834;4.718;2024-01-15T11:05:37;17.30;42.60
13928;DHT22;7036;50.834;4.718;2024-01-15T11:08:07;17.30;42.40
13928;DHT22;7036;50.834;4.718;2024-01-15T11:10:46;17.30;42.40
13928;DHT22;7036;50.834;4.718;2024-01-15T11:13:19;17.30;42.40
13928;DHT22;7036;50.834;4.718;2024-01-15T11:16:01;17.30;42.40
13928;DHT22;7036;50.834;4.718;2024-01-15T11:18:25;17.30;51.80
13928;DHT22;7036;50.834;4.718;2024-01-15T11:23:47;17.30;42.60
13928;DHT22;7036;50.834;4.718;2024-01-15T11:26:38;17.30;42.40
13928;DHT22;7036;50.834;4.718;2024-01-15T11:29:06;17.30;42.40
13928;DHT22;7036;50.834;4.718;2024-01-15T11:34:09;17.20;42.90
13928;DHT22;7036;50.834;4.718;2024-01-15T11:42:00;17.20;42.40
13928;DHT22;7036;50.834;4.718;2024-01-15T11:44:27;17.40;42.60
13928;DHT22;7036;50.834;4.718;2024-01-15T11:47:03;17.40;42.50
13928;DHT22;7036;50.834;4.718;2024-01-15T11:52:12;17.60;42.60
13928;DHT22;7036;50.834;4.718;2024-01-15T11:54:40;17.80;42.60
13928;DHT22;7036;50.834;4.718;2024-01-15T11:57:09;17.90;42.50
13928;DHT22;7036;50.834;4.718;2024-01-15T11:59:36;17.90;42.50
13928;DHT22;7036;50.834;4.718;2024-01-15T12:02:04;17.90;42.40
13928;DHT22;7036;50.834;4.718;2024-01-15T12:04:32;18.00;42.40
13928;DHT22;7036;50.834;4.718;2024-01-15T12:07:00;18.00;42.40
13928;DHT22;7036;50.834;4.718;2024-01-15T12:09:28;18.00;42.40
13928;DHT22;7036;50.834;4.718;2024-01-15T12:11:57;18.00;42.20
13928;DHT22;7036;50.834;4.718;2024-01-15T12:14:23;18.00;42.30
13928;DHT22;7036;50.834;4.718;2024-01-15T12:16:51;18.00;42.30
13928;DHT22;7036;50.834;4.718;2024-01-15T12:19:19;18.00;42.20
13928;DHT22;7036;50.834;4.718;2024-01-15T12:21:47;18.00;42.10
13928;DHT22;7036;50.834;4.718;2024-01-15T12:24:16;18.00;42.00
13928;DHT22;7036;50.834;4.718;2024-01-15T12:26:42;18.00;41.90
13928;DHT22;7036;50.834;4.718;2024-01-15T12:29:11;17.90;41.80
13928;DHT22;7036;50.834;4.718;2024-01-15T12:31:37;17.90;41.70
13928;DHT22;7036;50.834;4.718;2024-01-15T12:34:05;17.90;41.70
13928;DHT22;7036;50.834;4.718;2024-01-15T12:36:32;17.80;41.90
13928;DHT22;7036;50.834;4.718;2024-01-15T12:39:00;17.80;41.70
13928;DHT22;7036;50.834;4.718;2024-01-15T12:41:27;17.70;41.40
13928;DHT22;7036;50.834;4.718;2024-01-15T12:43:54;17.70;41.30
13928;DHT22;7036;50.834;4.718;2024-01-15T12:46:23;17.70;41.40
13928;DHT22;7036;50.834;4.718;2024-01-15T12:48:50;17.70;41.40
13928;DHT22;7036;50.834;4.718;2024-01-15T12:51:17;17.70;41.30
13928;DHT22;7036;50.834;4.718;2024-01-15T12:53:45;17.60;41.60
13928;DHT22;7036;50.834;4.718;2024-01-15T12:56:13;17.60;41.70
13928;DHT22;7036;50.834;4.718;2024-01-15T12:58:41;17.60;41.70
13928;DHT22;7036;50.834;4.718;2024-01-15T13:01:09;17.60;41.60
13928;DHT22;7036;50.834;4.718;2024-01-15T13:03:37;17.60;41.60
13928;DHT22;7036;50.834;4.718;2024-01-15T13:06:05;17.60;41.60
13928;DHT22;7036;50.834;4.718;2024-01-15T13:08:32;17.60;41.50
13928;DHT22;7036;50.834;4.718;2024-01-15T13:11:00;17.80;42.00
13928;DHT22;7036;50.834;4.718;2024-01-15T13:13:28;17.90;42.10
13928;DHT22;7036;50.834;4.718;2024-01-15T13:15:56;17.90;42.00
13928;DHT22;7036;50.834;4.718;2024-01-15T13:18:24;18.00;42.00
13928;DHT22;7036;50.834;4.718;2024-01-15T13:20:52;18.10;42.00
13928;DHT22;7036;50.834;4.718;2024-01-15T13:23:20;18.10;41.90
13928;DHT22;7036;50.834;4.718;2024-01-15T13:25:47;18.20;41.80
13928;DHT22;7036;50.834;4.718;2024-01-15T13:28:15;18.30;41.90
13928;DHT22;7036;50.834;4.718;2024-01-15T13:30:43;18.30;41.90
13928;DHT22;7036;50.834;4.718;2024-01-15T13:33:11;18.40;42.10
13928;DHT22;7036;50.834;4.718;2024-01-15T13:35:39;18.40;42.00
13928;DHT22;7036;50.834;4.718;2024-01-15T13:38:06;18.40;42.20
13928;DHT22;7036;50.834;4.718;2024-01-15T13:40:34;18.50;42.50
13928;DHT22;7036;50.834;4.718;2024-01-15T13:43:01;18.50;43.10
13928;DHT22;7036;50.834;4.718;2024-01-15T13:45:29;18.60;43.70
13928;DHT22;7036;50.834;4.718;2024-01-15T13:47:57;18.60;43.60
13928;DHT22;7036;50.834;4.718;2024-01-15T13:50:25;18.60;43.40
13928;DHT22;7036;50.834;4.718;2024-01-15T13:52:52;18.60;43.40
13928;DHT22;7036;50.834;4.718;2024-01-15T13:55:20;18.60;44.00
13928;DHT22;7036;50.834;4.718;2024-01-15T13:57:49;18.60;43.20
13928;DHT22;7036;50.834;4.718;2024-01-15T14:00:15;18.70;43.00
13928;DHT22;7036;50.834;4.718;2024-01-15T14:02:44;18.70;43.10
13928;DHT22;7036;50.834;4.718;2024-01-15T14:05:12;18.60;42.90
13928;DHT22;7036;50.834;4.718;2024-01-15T14:07:40;18.60;42.80
13928;DHT22;7036;50.834;4.718;2024-01-15T14:10:07;18.60;42.90
13928;DHT22;7036;50.834;4.718;2024-01-15T14:12:37;18.60;42.90
13928;DHT22;7036;50.834;4.718;2024-01-15T14:15:04;18.60;42.80
13928;DHT22;7036;50.834;4.718;2024-01-15T14:17:31;18.60;42.70
13928;DHT22;7036;50.834;4.718;2024-01-15T14:19:59;18.60;42.90
13928;DHT22;7036;50.834;4.718;2024-01-15T14:22:28;18.60;43.00
13928;DHT22;7036;50.834;4.718;2024-01-15T14:24:56;18.60;42.90
13928;DHT22;7036;50.834;4.718;2024-01-15T14:27:23;18.60;42.90
13928;DHT22;7036;50.834;4.718;2024-01-15T14:29:50;18.60;42.90
13928;DHT22;7036;50.834;4.718;2024-01-15T14:32:17;18.60;42.90
13928;DHT22;7036;50.834;4.718;2024-01-15T14:34:45;18.60;43.00
13928;DHT22;7036;50.834;4.718;2024-01-15T14:37:14;18.60;43.10
13928;DHT22;7036;50.834;4.718;2024-01-15T14:39:40;18.60;42.90
13928;DHT22;7036;50.834;4.718;2024-01-15T14:42:08;18.60;42.90
13928;DHT22;7036;50.834;4.718;2024-01-15T14:44:36;18.70;42.40
13928;DHT22;7036;50.834;4.718;2024-01-15T14:47:04;18.70;43.10
13928;DHT22;7036;50.834;4.718;2024-01-15T14:49:32;18.70;43.00
13928;DHT22;7036;50.834;4.718;2024-01-15T14:52:00;18.70;42.90
13928;DHT22;7036;50.834;4.718;2024-01-15T14:54:28;18.70;42.90
13928;DHT22;7036;50.834;4.718;2024-01-15T14:56:55;18.70;42.60
13928;DHT22;7036;50.834;4.718;2024-01-15T14:59:23;18.70;42.90
13928;DHT22;7036;50.834;4.718;2024-01-15T15:01:51;18.70;43.60
13928;DHT22;7036;50.834;4.718;2024-01-15T15:04:19;18.70;42.90
13928;DHT22;7036;50.834;4.718;2024-01-15T15:06:47;18.80;42.90
13928;DHT22;7036;50.834;4.718;2024-01-15T15:09:15;18.80;42.90
13928;DHT22;7036;50.834;4.718;2024-01-15T15:11:43;18.80;42.90
13928;DHT22;7036;50.834;4.718;2024-01-15T15:14:11;18.80;43.20
13928;DHT22;7036;50.834;4.718;2024-01-15T15:16:39;18.80;42.70
13928;DHT22;7036;50.834;4.718;2024-01-15T15:19:07;18.80;42.60
13928;DHT22;7036;50.834;4.718;2024-01-15T15:21:35;18.80;42.60
13928;DHT22;7036;50.834;4.718;2024-01-15T15:24:04;18.80;42.80
13928;DHT22;7036;50.834;4.718;2024-01-15T15:26:30;18.80;42.70
13928;DHT22;7036;50.834;4.718;2024-01-15T15:28:58;18.90;43.00
13928;DHT22;7036;50.834;4.718;2024-01-15T15:31:26;18.80;42.90
13928;DHT22;7036;50.834;4.718;2024-01-15T15:33:54;18.80;42.80
13928;DHT22;7036;50.834;4.718;2024-01-15T15:36:22;18.80;43.00
13928;DHT22;7036;50.834;4.718;2024-01-15T15:38:49;18.80;42.90
13928;DHT22;7036;50.834;4.718;2024-01-15T15:41:17;18.70;43.00
13928;DHT22;7036;50.834;4.718;2024-01-15T15:43:45;18.70;43.00
13928;DHT22;7036;50.834;4.718;2024-01-15T15:46:13;18.70;43.20
13928;DHT22;7036;50.834;4.718;2024-01-15T15:48:41;18.70;43.10
13928;DHT22;7036;50.834;4.718;2024-01-15T15:51:08;18.70;43.00
13928;DHT22;7036;50.834;4.718;2024-01-15T15:53:36;18.70;43.20
13928;DHT22;7036;50.834;4.718;2024-01-15T15:56:04;18.80;43.20
13928;DHT22;7036;50.834;4.718;2024-01-15T15:58:32;18.80;43.10
13928;DHT22;7036;50.834;4.718;2024-01-15T16:01:00;18.80;43.80
13928;DHT22;7036;50.834;4.718;2024-01-15T16:03:28;18.80;43.00